Timeline UpdatesTrip UpdatesNews PostsPvt PostsTravel TipsAdmin PostsConv PostsFollowed PostsChat RequestsBlog PostsPNR Posts

Disclaimer
Search
 
 
Tue Sep 2, 2014 19:37:59 ISTHomeTrainsΣChainsAtlasPNRForumGalleryNewsFAQTripsMembersLoginFeedback
No Recent News for this Train
Other Trains in the News **new
Latest...
..
Mon Dec 30, 2013 (12:01AM)
⇐ Return Journey: Train# 19038

19037/Avadh Express

Time-Table HAS CHANGED.
Yesterday (11:38PM)
Change Departure Station:
Change Arrival Station:
Post a Train Travel TipPost a Train Travel Tip **new
Post a Comment/Question/Picture/VideoPost a Comment/Question/Picture/Video
Pantry/Catering
✓ Pantry Car Avbl
✓ Catering Avbl
Loco/Rake Reversals
LJN/Lucknow Junction (6);
RSA - Rake Sharing
19037/19038 have RSA with 19039/19040.
Rake/Coach Composition
Wap 4 BRC shed-SLR-S15-S14-S13-S12-S11-S10-S9-S8-S7-S6-S5-S4-S3-S2-S1-PC-B2-B1-A1-GEN-GEN-SLR; Total 23 Coaches
Loco
BDTS-LJN : BRC/CNB WAP-4; LJN-GKP : GD WDM-3A Entry NO.731585
News    PNR    Forum    Time-Table    Availability    Fare Chart    Map    Arr/Dep History    Trips    Gallery    ΣChains    X/O    Timeline    
Travel Time: 34h 32m    58 halts    Distance: 1592 km    Avg Speed: 46 km/hr
Type: Mail/Express
Zone: WR/Western
Departs @ 03:08
Platform# 1
 M WT S
Surat/ST 
Arrives @ 13:40 +1 night
Platform# 7
S T TF 
Gorakhpur Junction/GKP 

58 halts. 241 intermediate Stations between Surat and Gorakhpur Junction

Show ALL intermediate Stations  Show Old Time-Table

#CodeStation NameX/OArrivesAvgDepartsAvgHaltPFDay#KmSpeedElevZoneAddress
1BDTSMumbai Bandra Terminus (5)  -22:40-11-252.2234mWRMumbai 400050, Maharashtra
2ADHMumbai Andheri (9)  22:56-22:58-2m81-246.04212mWRMumbai, Maharashtra
3BVIMumbai Borivali (8)  23:13 23:16-23:18-5 2m61-233.46719mWRMumbai - 400092, Maharashtra
4BORBoisar (3)  00:19-00:21-2m22-165.26017mWRBoisar Tel.no-02525-266626, Maharashtra
5VAPIVapi (3)X  01:31-01:33-2m12-94.96327mWRVapi, Gujarat
6BLValsad (3)X  01:58-02:00-2m22-68.76515mWRValsad, Gujarat
7ST»Surat (4)»  03:03-03:08-5m120.06519mWRSurat 395001, Gujarat
8AKVAnkleshwar Junction (4)X  03:54-03:56-2m1249.97319mWRAnkleshwar, Gujarat
9BRCVadodara Junction (7)X  05:02-05:12-10m32129.87036mWRVadodara 390005, Gujarat
10GDAGodhra Junction (3)  06:15-06:18-3m22203.778122mWRGodhra, Gujarat
11DHDDahod (3)  07:13 07:14-07:15-2 1m32276.890313mWRDahod, Gujarat
12MGNMeghnagar (3)  07:37-07:39-2m12309.974317mWRJhabua, Madhya Pradesh
13BMIBamnia (2)  08:08-08:10-2m12345.434392mWRBamnia, Madhya Pradesh
14RTMRatlam Junction (7)  09:30-09:50-20m62390.272495mWRRatlam, Madhya Pradesh
15KUHKhachrod (2)X  10:12 10:13-10:14 10:15-2m22417.824497mWRUjjain, Madhya Pradesh
16NADNagda Junction (4)X  10:55 10:50-11:00 10:55-5m--2431.668468mWRNagda, Madhya Pradesh
17MEPMahidpur Road  11:14 11:10-11:16 11:12-2m--2448.790493mWCRGogapur, Madhya Pradesh
18VMAVikramgarh Alot (2)X  11:33 11:28-11:35 11:30-2m22472.673443mWCRKota Division, Madhya Pradesh
19CMUChau Mahla (3)  11:53 11:48-11:55 11:50-2m22494.466426mWCRJhalawar, Rajasthan
20SVASuwasra (2)  12:08 12:04-12:10 12:06-2m--2509.867450mWCRSuwasra, Madhya Pradesh
21SGZShamgarh (3)X  12:23 12:18-12:25 12:20-2m--2523.265463mWCRMandsaur, Madhya Pradesh
22GOHGaroth (2)O  12:33 12:30-12:35 12:32-2m22534.085441mWCRMadhya Pradesh 458880, Madhya Pradesh
23BWMBhawani Mandi (3)X  12:53 12:48-12:55 12:50-2m--2556.776384mWCRBhawani Mandi, Madhya Pradesh
24JHWJhalawar Road (3)  13:08 13:03-13:10 13:05-2m--2573.274361mWCRJhalawar City, Rajasthan
25RMARamganj Mandi Junction (3)  13:20 13:15-13:22 13:17-2m--2585.554358mWCRRamganj Mandi, Rajasthan
26MKXMorak (2)  13:32 13:27-13:34 13:29-2m22594.681337mWCRMorak, Rajasthan
27DKNTDakaniya Talav (2)  14:13 14:08-14:15 14:10-2m12647.522278mWCRKota, Rajasthan
28KOTAKota Junction (5)  14:40 14:35-14:50 14:40-10 5m12656.889256mWCRKota, Rajasthan
29LKELakheri (3)  15:23 15:21-15:25 15:23-2m22717.455228mWCRBundi, Rajasthan
30IDGIndargarh Sumerganj Mandi (2)  15:35-15:37-2m22728.478247mWCRIndargarh, Rajasthan
31SWMSawai Madhopur Junction (4)  16:25 16:05-16:30 16:10-5m--2764.651266mWCRSawai Madhopur, Rajasthan
32GGCGangapur City (3)X  17:24 17:25-17:25 17:30-1 5m--2828.568270mWCRGangapur, Rajasthan
33SMBJShri Mahabirji (3)  17:50 18:00-17:52 18:02-2m22862.661240mWCRKarauli, Rajasthan
34HANHindaun City (2)  18:02 18:12-18:04 18:14-2m--2872.828230mWCRKarauli, Rajasthan
35BXNBayana Junction (3)  19:20 19:25-19:25 19:30-5m12905.771198mWCRBayana, Rajasthan
36RBSRupbas (2)  20:09 19:59-20:11 20:01-2m12939.857178mNCRJAGNER ROAD, Rajasthan
37FTSFatehpur Sikri (2)  20:31 20:16-20:33 20:18-2m12954.050176mNCRAgra, Uttar Pradesh
38KLBKiraoli (1)  20:48 20:33-20:50 20:35-2m12966.428174mNCRKiraoli, Uttar Pradesh
39IDHIdgah Agra Junction (3)  21:26 21:21-21:28 21:23-2m12988.18168mNCRAgra, Uttar Pradesh
40AFAgra Fort (3)  21:45 21:40-21:55 21:50-10m12990.214170mNCRRakabganj, Uttar Pradesh
41TDLTundla Junction (5)XO  23:25-23:35-10m321013.133167mNCRDistt.Firozabad, Uttar Pradesh
42FZDFirozabad (4)X  00:05-00:07-2m231029.757164mNCRFirozabad, Uttar Pradesh
43SKBShikohabad Junction (4)X  00:28-00:30-2m231049.585166mNCRDistrict Firozabad, Uttar Pradesh
44ETWEtawah (5)X  01:09-01:11-2m331104.970154mNCRDistt. Etawah, Uttar Pradesh
45BNTBharthana (3)XO  01:28-01:30-2m331124.848147mNCRBharthana, Uttar Pradesh
46PHDPhaphund (4)X  02:15-02:17-2m331161.136146mNCRdist. Auraiya, Uttar Pradesh
47CNBKanpur Central (10)  04:35-04:45-10m--31244.347128mNCRKANPUR-208 001, Uttar Pradesh
48ONUnnao Junction (5)X  05:06 05:07-05:08 05:09-2m--31261.743129mNRUnnao, Uttar Pradesh
49LJNLucknow Junction (6)↵¶06:25-06:50-25m431315.612126mNERLucknow, Uttar Pradesh
50LCLucknow City (3)  07:14-07:16-2m--31320.327127mNERLucknow, Uttar Pradesh
51BNZBadshahnagar (2)  07:30-07:35 07:32-5 2m--31326.626116mNERLucknow, Uttar Pradesh
52GTNRGomti Nagar (3)  07:41 07:42-07:43 07:44-2m131330.947117mNERLucknow, Uttar Pradesh
53BBKBarabanki Junction (4)  08:10-08:12-2m--31351.271122mNRPin-225001, Uttar Pradesh
54BUWBurhwal Junction (3)X  08:40 08:35-08:42 08:37-2m--31378.369119mNERBarabanki, Uttar Pradesh
55JLDJarwal Road (2)X  09:00 08:51-09:02 08:53-2m--31394.445112mNERBehraich, Uttar Pradesh
56CLJColonelGanj (2)  09:20 09:16-09:22 09:18-2m--31411.647108mNERGonda, Uttar Pradesh
57GDGonda Junction (3)  10:15 09:55-10:25 10:05-10m231440.573110mNERGonda 271001, Uttar Pradesh
58MURMankapur Junction (5)  10:48 10:28-10:50 10:30-2m--31468.470104mNERDistrict Gonda, Uttar Pradesh
59MSWMaskanwa (2)  11:03 10:42-11:05 10:44-2m--31482.433103mNERChhapaiya Rd, Uttar Pradesh
60SNCSwami Narayan Chhapia (2)11:13 10:52-11:14 10:54-1 2m--31486.8-100mNERS Narayan Chpla, Uttar Pradesh
61BVBabhnan (2)  11:20 10:58-11:22 11:00-2m--31498.162101mNERDistrict- Basti, Uttar Pradesh
62BSTBasti (4)  11:50 11:30-11:55 11:35-5m231528.97190mNERBasti 272001, Uttar Pradesh
63KLDKhalilabad (3)O  12:18 12:00-12:20 12:02-2m--31558.51386mNERKhalilabad- 272175, Uttar Pradesh
64MHHMaghar (3)  12:34 12:40-12:36 12:42-2m--31567.05083mNERNH 28. Distt- SantKabirNagar- 272173, Uttar Pradesh
65SWASahjanwa (2)X  12:51 12:52-12:53 12:54-2m--31575.22280mNERGorakhpur - 273209, Uttar Pradesh
66GKP•Gorakhpur Junction (10)•  13:40--731592.4-84mNERGorakhpur 273001, Uttar Pradesh
Scroll to Top
Scroll to Bottom